Time,TemperatureF,DewpointF,PressureIn,WindDirection,WindDirectionDegrees,WindSpeedMPH,WindSpeedGustMPH,Humidity,HourlyPrecipIn,Conditions,Clouds,dailyrainin,SoftwareType,DateUTC
2013-05-21 00:03:00,51.6,48.8,29.78,SE,135,1.7,-999.0,90,-99.99,,,0.00,Acu-Link.com,2013-05-21 07:03:00,
2013-05-21 00:18:00,51.3,49.1,29.78,SW,225,4.7,-999.0,92,-99.99,,,0.00,Acu-Link.com,2013-05-21 07:18:00,
2013-05-21 00:34:00,51.3,49.1,29.77,NW,315,3.7,-999.0,92,-99.99,,,0.00,Acu-Link.com,2013-05-21 07:34:00,
2013-05-21 00:49:00,51.1,48.9,29.77,NNW,337,3.7,-999.0,92,-99.99,,,0.00,Acu-Link.com,2013-05-21 07:49:00,
2013-05-21 01:04:00,51.1,48.9,29.77,SSE,157,0.0,-999.0,92,-99.99,,,0.00,Acu-Link.com,2013-05-21 08:04:00,
2013-05-21 01:20:00,51.1,48.9,29.77,SE,135,2.2,-999.0,92,-99.99,,,0.00,Acu-Link.com,2013-05-21 08:20:00,
2013-05-21 01:35:00,51.1,48.9,29.77,South,180,2.7,-999.0,92,-99.99,,,0.00,Acu-Link.com,2013-05-21 08:35:00,
2013-05-21 01:50:00,51.1,49.1,29.77,West,270,4.7,-999.0,93,-99.99,,,0.00,Acu-Link.com,2013-05-21 08:50:00,
2013-05-21 02:05:00,51.3,49.1,29.77,NNE,22,3.2,-999.0,92,-99.99,,,0.00,Acu-Link.com,2013-05-21 09:05:00,
2013-05-21 02:20:00,51.3,49.1,29.77,SW,225,3.7,-999.0,92,-99.99,,,0.00,Acu-Link.com,2013-05-21 09:20:00,
2013-05-21 02:35:00,51.3,48.8,29.76,NW,315,4.7,-999.0,91,-99.99,,,0.00,Acu-Link.com,2013-05-21 09:35:00,
2013-05-21 02:50:00,51.6,48.8,29.75,SSE,157,2.7,-999.0,90,-99.99,,,0.00,Acu-Link.com,2013-05-21 09:50:00,
2013-05-21 03:05:00,51.8,48.7,29.76,NNW,337,6.3,-999.0,89,-99.99,,,0.00,Acu-Link.com,2013-05-21 10:05:00,
2013-05-21 03:21:00,51.8,48.7,29.76,NW,315,2.2,-999.0,89,-99.99,,,0.00,Acu-Link.com,2013-05-21 10:21:00,
2013-05-21 03:36:00,51.8,48.7,29.76,NNE,22,5.3,-999.0,89,-99.99,,,0.00,Acu-Link.com,2013-05-21 10:36:00,
2013-05-21 03:51:00,52.0,48.9,29.75,NNW,337,3.7,-999.0,89,-99.99,,,0.00,Acu-Link.com,2013-05-21 10:51:00,
2013-05-21 04:06:00,52.0,48.9,29.75,NNW,337,0.0,-999.0,89,-99.99,,,0.00,Acu-Link.com,2013-05-21 11:06:00,
2013-05-21 04:22:00,51.8,48.7,29.76,WNW,292,0.0,-999.0,89,-99.99,,,0.00,Acu-Link.com,2013-05-21 11:22:00,
2013-05-21 04:37:00,51.8,48.7,29.76,SSE,157,0.0,-999.0,89,-99.99,,,0.00,Acu-Link.com,2013-05-21 11:37:00,
2013-05-21 04:52:00,51.8,48.7,29.76,SE,135,6.3,-999.0,89,-99.99,,,0.00,Acu-Link.com,2013-05-21 11:52:00,
2013-05-21 05:07:00,52.2,48.4,29.77,NNW,337,3.2,-999.0,87,-99.99,,,0.00,Acu-Link.com,2013-05-21 12:07:00,
2013-05-21 05:23:00,52.2,48.1,29.76,ESE,112,2.2,-999.0,86,-99.99,,,0.00,Acu-Link.com,2013-05-21 12:23:00,
2013-05-21 05:38:00,52.2,47.5,29.77,NNW,337,0.0,-999.0,84,-99.99,,,0.00,Acu-Link.com,2013-05-21 12:38:00,
2013-05-21 05:53:00,52.3,47.0,29.77,West,270,3.2,-999.0,82,-99.99,,,0.00,Acu-Link.com,2013-05-21 12:53:00,
2013-05-21 06:09:00,52.5,46.8,29.77,SE,135,0.0,-999.0,81,-99.99,,,0.00,Acu-Link.com,2013-05-21 13:09:00,
2013-05-21 06:24:00,52.3,46.6,29.78,East,90,0.0,-999.0,81,-99.99,,,0.00,Acu-Link.com,2013-05-21 13:24:00,
2013-05-21 06:39:00,52.3,46.6,29.79,East,90,0.0,-999.0,81,-99.99,,,0.00,Acu-Link.com,2013-05-21 13:39:00,
2013-05-21 06:54:00,52.7,46.7,29.80,West,270,0.0,-999.0,80,-99.99,,,0.00,Acu-Link.com,2013-05-21 13:54:00,
2013-05-21 07:10:00,53.2,46.2,29.80,NNW,337,0.0,-999.0,77,-99.99,,,0.00,Acu-Link.com,2013-05-21 14:10:00,
2013-05-21 07:25:00,54.0,47.0,29.80,West,270,3.2,-999.0,77,-99.99,,,0.00,Acu-Link.com,2013-05-21 14:25:00,
2013-05-21 07:40:00,54.9,47.8,29.80,NE,45,4.7,-999.0,77,-99.99,,,0.00,Acu-Link.com,2013-05-21 14:40:00,
2013-05-21 07:55:00,55.8,48.3,29.81,West,270,0.0,-999.0,76,-99.99,,,0.00,Acu-Link.com,2013-05-21 14:55:00,
2013-05-21 08:11:00,61.0,49.1,29.81,NW,315,2.7,-999.0,65,-99.99,,,0.00,Acu-Link.com,2013-05-21 15:11:00,
2013-05-21 08:26:00,63.9,49.3,29.81,West,270,1.7,-999.0,59,-99.99,,,0.00,Acu-Link.com,2013-05-21 15:26:00,
2013-05-21 08:41:00,63.3,49.2,29.81,NNE,22,3.7,-999.0,60,-99.99,,,0.00,Acu-Link.com,2013-05-21 15:41:00,
2013-05-21 08:56:00,66.0,50.3,29.81,ENE,67,0.0,-999.0,57,-99.99,,,0.00,Acu-Link.com,2013-05-21 15:56:00,
2013-05-21 09:11:00,67.1,49.9,29.82,WSW,247,5.3,-999.0,54,-99.99,,,0.00,Acu-Link.com,2013-05-21 16:11:00,
2013-05-21 09:27:00,66.4,50.2,29.82,SSW,202,8.9,-999.0,56,-99.99,,,0.00,Acu-Link.com,2013-05-21 16:27:00,
2013-05-21 09:42:00,63.7,50.4,29.83,WNW,292,4.2,-999.0,62,-99.99,,,0.00,Acu-Link.com,2013-05-21 16:42:00,
2013-05-21 09:57:00,63.9,50.6,29.83,West,270,1.1,-999.0,62,-99.99,,,0.00,Acu-Link.com,2013-05-21 16:57:00,
2013-05-21 10:13:00,63.9,50.2,29.83,NNE,22,0.0,-999.0,61,-99.99,,,0.00,Acu-Link.com,2013-05-21 17:13:00,
2013-05-21 10:28:00,63.5,49.4,29.83,WNW,292,4.2,-999.0,60,-99.99,,,0.00,Acu-Link.com,2013-05-21 17:28:00,
2013-05-21 10:43:00,65.3,50.1,29.83,South,180,4.7,-999.0,58,-99.99,,,0.00,Acu-Link.com,2013-05-21 17:43:00,
2013-05-21 10:58:00,65.3,49.2,29.83,NNE,22,2.2,-999.0,56,-99.99,,,0.00,Acu-Link.com,2013-05-21 17:58:00,
2013-05-21 11:13:00,65.5,48.4,29.84,North,0,3.7,-999.0,54,-99.99,,,0.00,Acu-Link.com,2013-05-21 18:13:00,
2013-05-21 11:29:00,66.4,48.2,29.84,NNW,337,7.3,-999.0,52,-99.99,,,0.00,Acu-Link.com,2013-05-21 18:29:00,
2013-05-21 11:44:00,67.6,47.8,29.84,WNW,292,5.8,-999.0,49,-99.99,,,0.00,Acu-Link.com,2013-05-21 18:44:00,
2013-05-21 11:59:00,66.6,47.4,29.83,WNW,292,4.7,-999.0,50,-99.99,,,0.00,Acu-Link.com,2013-05-21 18:59:00,
2013-05-21 12:14:00,66.7,47.5,29.83,WNW,292,6.3,-999.0,50,-99.99,,,0.00,Acu-Link.com,2013-05-21 19:14:00,
2013-05-21 12:29:00,66.6,47.4,29.82,North,0,5.3,-999.0,50,-99.99,,,0.00,Acu-Link.com,2013-05-21 19:29:00,
2013-05-21 12:45:00,67.5,47.7,29.83,NNW,337,12.5,-999.0,49,-99.99,,,0.00,Acu-Link.com,2013-05-21 19:45:00,
2013-05-21 13:00:00,66.6,47.4,29.82,SSW,202,3.7,-999.0,50,-99.99,,,0.00,Acu-Link.com,2013-05-21 20:00:00,
2013-05-21 13:15:00,67.5,46.6,29.83,ESE,112,10.9,-999.0,47,-99.99,,,0.00,Acu-Link.com,2013-05-21 20:15:00,
2013-05-21 13:30:00,65.8,46.6,29.83,West,270,8.9,-999.0,50,-99.99,,,0.00,Acu-Link.com,2013-05-21 20:30:00,
2013-05-21 13:45:00,68.0,47.6,29.82,WNW,292,6.3,-999.0,48,-99.99,,,0.00,Acu-Link.com,2013-05-21 20:45:00,
2013-05-21 14:01:00,66.6,46.8,29.81,WNW,292,4.7,-999.0,49,-99.99,,,0.00,Acu-Link.com,2013-05-21 21:01:00,
2013-05-21 14:16:00,66.9,47.1,29.81,West,270,6.3,-999.0,49,-99.99,,,0.00,Acu-Link.com,2013-05-21 21:16:00,
2013-05-21 14:31:00,66.4,47.2,29.82,NNE,22,2.2,-999.0,50,-99.99,,,0.00,Acu-Link.com,2013-05-21 21:31:00,
2013-05-21 14:46:00,67.5,47.1,29.81,NNW,337,8.9,-999.0,48,-99.99,,,0.00,Acu-Link.com,2013-05-21 21:46:00,
2013-05-21 15:02:00,66.9,47.1,29.80,ENE,67,5.8,-999.0,49,-99.99,,,0.00,Acu-Link.com,2013-05-21 22:02:00,
2013-05-21 15:17:00,66.6,46.8,29.81,WSW,247,8.9,-999.0,49,-99.99,,,0.00,Acu-Link.com,2013-05-21 22:17:00,
2013-05-21 15:32:00,65.8,47.2,29.80,SSW,202,6.8,-999.0,51,-99.99,,,0.00,Acu-Link.com,2013-05-21 22:32:00,
2013-05-21 15:47:00,64.9,46.8,29.80,SW,225,11.9,-999.0,52,-99.99,,,0.00,Acu-Link.com,2013-05-21 22:47:00,
2013-05-21 16:02:00,64.8,46.8,29.79,SE,135,5.3,-999.0,52,-99.99,,,0.00,Acu-Link.com,2013-05-21 23:02:00,
2013-05-21 16:17:00,65.5,46.9,29.78,ENE,67,3.2,-999.0,51,-99.99,,,0.00,Acu-Link.com,2013-05-21 23:17:00,
2013-05-21 16:33:00,65.1,46.5,29.78,NE,45,2.2,-999.0,51,-99.99,,,0.00,Acu-Link.com,2013-05-21 23:33:00,
2013-05-21 16:48:00,65.1,47.0,29.78,WNW,292,11.4,-999.0,52,-99.99,,,0.00,Acu-Link.com,2013-05-21 23:48:00,
2013-05-21 17:03:00,63.5,46.1,29.77,West,270,6.8,-999.0,53,-99.99,,,0.00,Acu-Link.com,2013-05-22 00:03:00,
2013-05-21 17:18:00,63.9,46.4,29.77,NW,315,5.8,-999.0,53,-99.99,,,0.00,Acu-Link.com,2013-05-22 00:18:00,
2013-05-21 17:34:00,64.4,45.9,29.77,NNE,22,2.7,-999.0,51,-99.99,,,0.00,Acu-Link.com,2013-05-22 00:34:00,
2013-05-21 17:49:00,64.9,46.3,29.76,NNE,22,6.8,-999.0,51,-99.99,,,0.00,Acu-Link.com,2013-05-22 00:49:00,
2013-05-21 18:04:00,63.3,45.9,29.76,WNW,292,11.9,-999.0,53,-99.99,,,0.00,Acu-Link.com,2013-05-22 01:04:00,
2013-05-21 18:20:00,61.5,45.7,29.76,West,270,8.9,-999.0,56,-99.99,,,0.00,Acu-Link.com,2013-05-22 01:20:00,
2013-05-21 18:35:00,61.0,45.7,29.76,West,270,10.9,-999.0,57,-99.99,,,0.00,Acu-Link.com,2013-05-22 01:35:00,
2013-05-21 18:50:00,59.9,45.5,29.77,ENE,67,7.8,-999.0,59,-99.99,,,0.00,Acu-Link.com,2013-05-22 01:50:00,
2013-05-21 19:05:00,58.5,45.1,29.78,ENE,67,5.3,-999.0,61,-99.99,,,0.00,Acu-Link.com,2013-05-22 02:05:00,
2013-05-21 19:20:00,55.8,44.2,29.78,SW,225,7.3,-999.0,65,-99.99,,,0.00,Acu-Link.com,2013-05-22 02:20:00,
2013-05-21 19:35:00,54.5,44.2,29.77,West,270,6.8,-999.0,68,-99.99,,,0.00,Acu-Link.com,2013-05-22 02:35:00,
2013-05-21 19:51:00,54.0,44.1,29.77,North,0,7.3,-999.0,69,-99.99,,,0.00,Acu-Link.com,2013-05-22 02:51:00,
2013-05-21 20:06:00,53.4,44.2,29.78,North,0,9.4,-999.0,71,-99.99,,,0.00,Acu-Link.com,2013-05-22 03:06:00,
2013-05-21 20:21:00,52.7,43.6,29.78,NNW,337,7.3,-999.0,71,-99.99,,,0.00,Acu-Link.com,2013-05-22 03:21:00,
2013-05-21 20:36:00,52.5,43.4,29.78,NNW,337,4.2,-999.0,71,-99.99,,,0.00,Acu-Link.com,2013-05-22 03:36:00,
2013-05-21 20:52:00,52.3,43.2,29.78,NNE,22,14.0,-999.0,71,-99.99,,,0.00,Acu-Link.com,2013-05-22 03:52:00,
2013-05-21 21:07:00,52.2,42.7,29.78,NE,45,5.8,-999.0,70,-99.99,,,0.00,Acu-Link.com,2013-05-22 04:07:00,
2013-05-21 21:22:00,52.0,42.5,29.78,SSW,202,13.0,-999.0,70,-99.99,,,0.00,Acu-Link.com,2013-05-22 04:22:00,
2013-05-21 21:37:00,51.6,42.1,29.78,NNE,22,6.8,-999.0,70,-99.99,,,0.00,Acu-Link.com,2013-05-22 04:37:00,
2013-05-21 21:53:00,52.2,41.6,29.79,ESE,112,3.2,-999.0,67,-99.99,,,0.00,Acu-Link.com,2013-05-22 04:53:00,
2013-05-21 22:08:00,52.2,41.6,29.80,North,0,5.3,-999.0,67,-99.99,,,0.00,Acu-Link.com,2013-05-22 05:08:00,
2013-05-21 22:23:00,52.0,41.4,29.81,ESE,112,3.7,-999.0,67,-99.99,,,0.00,Acu-Link.com,2013-05-22 05:23:00,
2013-05-21 22:38:00,52.0,41.0,29.82,South,180,3.2,-999.0,66,-99.99,,,0.00,Acu-Link.com,2013-05-22 05:38:00,
2013-05-21 22:53:00,52.0,40.6,29.82,North,0,3.7,-999.0,65,-99.99,,,0.00,Acu-Link.com,2013-05-22 05:53:00,
2013-05-21 23:08:00,51.6,40.2,29.82,NE,45,3.2,-999.0,65,-99.99,,,0.00,Acu-Link.com,2013-05-22 06:08:00,
2013-05-21 23:23:00,51.3,40.3,29.82,SSE,157,0.0,-999.0,66,-99.99,,,0.00,Acu-Link.com,2013-05-22 06:23:00,
2013-05-21 23:39:00,50.9,40.0,29.82,SW,225,4.2,-999.0,66,-99.99,,,0.00,Acu-Link.com,2013-05-22 06:39:00,
2013-05-21 23:54:00,50.7,40.1,29.82,SSE,157,1.1,-999.0,67,-99.99,,,0.00,Acu-Link.com,2013-05-22 06:54:00,